sensor_id;sensor_type;location;lat;lon;timestamp;temperature;humidity
18880;DHT22;9572;52.378;13.404;2023-05-23T00:00:47;16.60;99.90
18880;DHT22;9572;52.378;13.404;2023-05-23T00:03:16;16.60;99.90
18880;DHT22;9572;52.378;13.404;2023-05-23T00:05:47;16.60;99.90
18880;DHT22;9572;52.378;13.404;2023-05-23T00:08:14;16.60;99.90
18880;DHT22;9572;52.378;13.404;2023-05-23T00:10:41;16.50;99.90
18880;DHT22;9572;52.378;13.404;2023-05-23T00:13:10;16.50;99.90
18880;DHT22;9572;52.378;13.404;2023-05-23T00:15:39;16.50;99.90
18880;DHT22;9572;52.378;13.404;2023-05-23T00:18:07;16.40;99.90
18880;DHT22;9572;52.378;13.404;2023-05-23T00:20:35;16.30;99.90
18880;DHT22;9572;52.378;13.404;2023-05-23T00:23:05;16.30;99.90
18880;DHT22;9572;52.378;13.404;2023-05-23T00:25:33;16.30;99.90
18880;DHT22;9572;52.378;13.404;2023-05-23T00:28:00;16.20;99.90
18880;DHT22;9572;52.378;13.404;2023-05-23T00:30:29;16.20;99.90
18880;DHT22;9572;52.378;13.404;2023-05-23T00:32:57;16.10;99.90
18880;DHT22;9572;52.378;13.404;2023-05-23T00:35:25;16.10;99.90
18880;DHT22;9572;52.378;13.404;2023-05-23T00:37:52;16.10;99.90
18880;DHT22;9572;52.378;13.404;2023-05-23T00:40:20;16.10;99.90
18880;DHT22;9572;52.378;13.404;2023-05-23T00:42:47;16.10;99.90
18880;DHT22;9572;52.378;13.404;2023-05-23T00:45:15;16.00;99.90
18880;DHT22;9572;52.378;13.404;2023-05-23T00:47:44;16.00;99.90
18880;DHT22;9572;52.378;13.404;2023-05-23T00:50:13;15.90;99.90
18880;DHT22;9572;52.378;13.404;2023-05-23T00:52:41;15.90;99.90
18880;DHT22;9572;52.378;13.404;2023-05-23T00:55:09;15.90;99.90
18880;DHT22;9572;52.378;13.404;2023-05-23T00:57:36;15.80;99.90
18880;DHT22;9572;52.378;13.404;2023-05-23T01:00:06;15.80;99.90
18880;DHT22;9572;52.378;13.404;2023-05-23T01:02:38;15.70;99.90
18880;DHT22;9572;52.378;13.404;2023-05-23T01:05:09;15.60;99.90
18880;DHT22;9572;52.378;13.404;2023-05-23T01:07:43;15.70;99.90
18880;DHT22;9572;52.378;13.404;2023-05-23T01:10:12;15.60;99.90
18880;DHT22;9572;52.378;13.404;2023-05-23T01:12:48;15.60;99.90
18880;DHT22;9572;52.378;13.404;2023-05-23T01:15:25;15.60;99.90
18880;DHT22;9572;52.378;13.404;2023-05-23T01:17:59;15.50;99.90
18880;DHT22;9572;52.378;13.404;2023-05-23T01:20:38;15.50;99.90
18880;DHT22;9572;52.378;13.404;2023-05-23T01:23:28;15.60;99.90
18880;DHT22;9572;52.378;13.404;2023-05-23T01:26:12;15.60;99.90
18880;DHT22;9572;52.378;13.404;2023-05-23T01:28:51;15.60;99.90
18880;DHT22;9572;52.378;13.404;2023-05-23T01:31:23;15.60;99.90
18880;DHT22;9572;52.378;13.404;2023-05-23T01:33:53;15.60;99.90
18880;DHT22;9572;52.378;13.404;2023-05-23T01:36:20;15.60;99.90
18880;DHT22;9572;52.378;13.404;2023-05-23T01:38:51;15.60;99.90
18880;DHT22;9572;52.378;13.404;2023-05-23T01:41:20;15.60;99.90
18880;DHT22;9572;52.378;13.404;2023-05-23T01:43:55;15.60;99.90
18880;DHT22;9572;52.378;13.404;2023-05-23T01:46:23;15.60;99.90
18880;DHT22;9572;52.378;13.404;2023-05-23T01:48:51;15.60;99.90
18880;DHT22;9572;52.378;13.404;2023-05-23T01:51:22;15.60;99.90
18880;DHT22;9572;52.378;13.404;2023-05-23T01:53:51;15.60;99.90
18880;DHT22;9572;52.378;13.404;2023-05-23T01:56:23;15.60;99.90
18880;DHT22;9572;52.378;13.404;2023-05-23T01:58:51;15.60;99.90
18880;DHT22;9572;52.378;13.404;2023-05-23T02:01:27;15.60;99.90
18880;DHT22;9572;52.378;13.404;2023-05-23T02:03:54;15.60;99.90
18880;DHT22;9572;52.378;13.404;2023-05-23T02:06:21;15.70;99.90
18880;DHT22;9572;52.378;13.404;2023-05-23T02:08:48;15.70;99.90
18880;DHT22;9572;52.378;13.404;2023-05-23T02:11:23;15.80;99.90
18880;DHT22;9572;52.378;13.404;2023-05-23T02:13:51;15.80;99.90
18880;DHT22;9572;52.378;13.404;2023-05-23T02:16:18;15.80;99.90
18880;DHT22;9572;52.378;13.404;2023-05-23T02:18:47;15.80;99.90
18880;DHT22;9572;52.378;13.404;2023-05-23T02:21:17;15.70;99.90
18880;DHT22;9572;52.378;13.404;2023-05-23T02:23:44;15.60;99.90
18880;DHT22;9572;52.378;13.404;2023-05-23T02:26:11;15.50;99.90
18880;DHT22;9572;52.378;13.404;2023-05-23T02:28:42;15.50;99.90
18880;DHT22;9572;52.378;13.404;2023-05-23T02:31:10;15.50;99.90
18880;DHT22;9572;52.378;13.404;2023-05-23T02:33:36;15.50;99.90
18880;DHT22;9572;52.378;13.404;2023-05-23T02:36:05;15.50;99.90
18880;DHT22;9572;52.378;13.404;2023-05-23T02:38:32;15.50;99.90
18880;DHT22;9572;52.378;13.404;2023-05-23T02:40:59;15.60;99.90
18880;DHT22;9572;52.378;13.404;2023-05-23T02:43:26;15.60;99.90
18880;DHT22;9572;52.378;13.404;2023-05-23T02:45:53;15.60;99.90
18880;DHT22;9572;52.378;13.404;2023-05-23T02:48:20;15.60;99.90
18880;DHT22;9572;52.378;13.404;2023-05-23T02:50:47;15.60;99.90
18880;DHT22;9572;52.378;13.404;2023-05-23T02:53:15;15.50;99.90
18880;DHT22;9572;52.378;13.404;2023-05-23T02:55:42;15.50;99.90
18880;DHT22;9572;52.378;13.404;2023-05-23T02:58:09;15.60;99.90
18880;DHT22;9572;52.378;13.404;2023-05-23T03:00:36;15.60;99.90
18880;DHT22;9572;52.378;13.404;2023-05-23T03:03:03;15.60;99.90
18880;DHT22;9572;52.378;13.404;2023-05-23T03:05:30;15.60;99.90
18880;DHT22;9572;52.378;13.404;2023-05-23T03:07:57;15.60;99.90
18880;DHT22;9572;52.378;13.404;2023-05-23T03:10:26;15.60;99.90
18880;DHT22;9572;52.378;13.404;2023-05-23T03:12:52;15.70;99.90
18880;DHT22;9572;52.378;13.404;2023-05-23T03:15:20;15.70;99.90
18880;DHT22;9572;52.378;13.404;2023-05-23T03:17:46;15.70;99.90
18880;DHT22;9572;52.378;13.404;2023-05-23T03:20:13;15.70;99.90
18880;DHT22;9572;52.378;13.404;2023-05-23T03:22:40;15.70;99.90
18880;DHT22;9572;52.378;13.404;2023-05-23T03:25:10;15.80;99.90
18880;DHT22;9572;52.378;13.404;2023-05-23T03:27:38;15.80;99.90
18880;DHT22;9572;52.378;13.404;2023-05-23T03:30:06;15.70;99.90
18880;DHT22;9572;52.378;13.404;2023-05-23T03:32:33;15.70;99.90
18880;DHT22;9572;52.378;13.404;2023-05-23T03:35:00;15.70;99.90
18880;DHT22;9572;52.378;13.404;2023-05-23T03:37:27;15.80;99.90
18880;DHT22;9572;52.378;13.404;2023-05-23T03:39:54;15.80;99.90
18880;DHT22;9572;52.378;13.404;2023-05-23T03:42:21;15.80;99.90
18880;DHT22;9572;52.378;13.404;2023-05-23T03:44:49;15.80;99.90
18880;DHT22;9572;52.378;13.404;2023-05-23T03:47:16;15.80;99.90
18880;DHT22;9572;52.378;13.404;2023-05-23T03:49:43;15.80;99.90
18880;DHT22;9572;52.378;13.404;2023-05-23T03:52:11;15.80;99.90
18880;DHT22;9572;52.378;13.404;2023-05-23T03:54:37;15.80;99.90
18880;DHT22;9572;52.378;13.404;2023-05-23T03:57:05;15.80;99.90
18880;DHT22;9572;52.378;13.404;2023-05-23T03:59:32;15.80;99.90
18880;DHT22;9572;52.378;13.404;2023-05-23T04:02:01;15.80;99.90
18880;DHT22;9572;52.378;13.404;2023-05-23T04:04:28;15.70;99.90
18880;DHT22;9572;52.378;13.404;2023-05-23T04:06:55;15.80;99.90
18880;DHT22;9572;52.378;13.404;2023-05-23T04:09:22;15.90;99.90
18880;DHT22;9572;52.378;13.404;2023-05-23T04:11:50;15.90;99.90
18880;DHT22;9572;52.378;13.404;2023-05-23T04:14:17;16.00;99.90
18880;DHT22;9572;52.378;13.404;2023-05-23T04:16:46;15.90;99.90
18880;DHT22;9572;52.378;13.404;2023-05-23T04:19:15;15.90;99.90
18880;DHT22;9572;52.378;13.404;2023-05-23T04:21:42;15.80;99.90
18880;DHT22;9572;52.378;13.404;2023-05-23T04:24:10;15.80;99.90
18880;DHT22;9572;52.378;13.404;2023-05-23T04:26:36;15.80;99.90
18880;DHT22;9572;52.378;13.404;2023-05-23T04:29:03;15.80;99.90
18880;DHT22;9572;52.378;13.404;2023-05-23T04:31:31;15.70;99.90
18880;DHT22;9572;52.378;13.404;2023-05-23T04:33:59;15.80;99.90
18880;DHT22;9572;52.378;13.404;2023-05-23T04:36:28;15.80;99.90
18880;DHT22;9572;52.378;13.404;2023-05-23T04:38:55;15.80;99.90
18880;DHT22;9572;52.378;13.404;2023-05-23T04:41:22;15.90;99.90
18880;DHT22;9572;52.378;13.404;2023-05-23T04:43:49;15.90;99.90
18880;DHT22;9572;52.378;13.404;2023-05-23T04:46:19;15.90;99.90
18880;DHT22;9572;52.378;13.404;2023-05-23T04:48:50;16.00;99.90
18880;DHT22;9572;52.378;13.404;2023-05-23T04:51:17;16.00;99.90
18880;DHT22;9572;52.378;13.404;2023-05-23T04:53:47;16.00;99.90
18880;DHT22;9572;52.378;13.404;2023-05-23T04:56:15;16.10;99.90
18880;DHT22;9572;52.378;13.404;2023-05-23T04:58:45;16.10;99.90
18880;DHT22;9572;52.378;13.404;2023-05-23T05:01:12;16.10;99.90
18880;DHT22;9572;52.378;13.404;2023-05-23T05:03:40;16.10;99.90
18880;DHT22;9572;52.378;13.404;2023-05-23T05:06:07;16.10;99.90
18880;DHT22;9572;52.378;13.404;2023-05-23T05:08:34;16.10;99.90
18880;DHT22;9572;52.378;13.404;2023-05-23T05:11:02;16.10;99.90
18880;DHT22;9572;52.378;13.404;2023-05-23T05:13:29;16.10;99.90
18880;DHT22;9572;52.378;13.404;2023-05-23T05:15:55;16.10;99.90
18880;DHT22;9572;52.378;13.404;2023-05-23T05:18:24;16.20;99.90
18880;DHT22;9572;52.378;13.404;2023-05-23T05:20:51;16.20;99.90
18880;DHT22;9572;52.378;13.404;2023-05-23T05:23:18;16.20;99.90
18880;DHT22;9572;52.378;13.404;2023-05-23T05:25:45;16.20;99.90
18880;DHT22;9572;52.378;13.404;2023-05-23T05:28:13;16.30;99.90
18880;DHT22;9572;52.378;13.404;2023-05-23T05:30:40;16.30;99.90
18880;DHT22;9572;52.378;13.404;2023-05-23T05:33:07;16.30;99.90
18880;DHT22;9572;52.378;13.404;2023-05-23T05:35:34;16.30;99.90
18880;DHT22;9572;52.378;13.404;2023-05-23T05:38:03;16.30;99.90
18880;DHT22;9572;52.378;13.404;2023-05-23T05:40:30;16.30;99.90
18880;DHT22;9572;52.378;13.404;2023-05-23T05:42:57;16.20;99.90
18880;DHT22;9572;52.378;13.404;2023-05-23T05:45:25;16.20;99.90
18880;DHT22;9572;52.378;13.404;2023-05-23T05:47:52;16.20;99.90
18880;DHT22;9572;52.378;13.404;2023-05-23T05:50:19;16.20;99.90
18880;DHT22;9572;52.378;13.404;2023-05-23T05:52:46;16.20;99.90
18880;DHT22;9572;52.378;13.404;2023-05-23T05:55:13;16.30;99.90
18880;DHT22;9572;52.378;13.404;2023-05-23T05:57:40;16.30;99.90
18880;DHT22;9572;52.378;13.404;2023-05-23T06:00:09;16.30;99.90
18880;DHT22;9572;52.378;13.404;2023-05-23T06:02:41;16.30;99.90
18880;DHT22;9572;52.378;13.404;2023-05-23T06:05:09;16.40;99.90
18880;DHT22;9572;52.378;13.404;2023-05-23T06:07:37;16.40;99.90
18880;DHT22;9572;52.378;13.404;2023-05-23T06:10:04;16.40;99.90
18880;DHT22;9572;52.378;13.404;2023-05-23T06:12:31;16.40;99.90
18880;DHT22;9572;52.378;13.404;2023-05-23T06:14:58;16.40;99.90
18880;DHT22;9572;52.378;13.404;2023-05-23T06:17:25;16.40;99.90
18880;DHT22;9572;52.378;13.404;2023-05-23T06:19:53;16.50;99.90
18880;DHT22;9572;52.378;13.404;2023-05-23T06:22:20;16.60;99.90
18880;DHT22;9572;52.378;13.404;2023-05-23T06:24:47;16.70;99.90
18880;DHT22;9572;52.378;13.404;2023-05-23T06:27:14;16.80;99.90
18880;DHT22;9572;52.378;13.404;2023-05-23T06:29:41;16.90;99.90
18880;DHT22;9572;52.378;13.404;2023-05-23T06:32:08;16.90;99.90
18880;DHT22;9572;52.378;13.404;2023-05-23T06:34:35;17.10;99.90
18880;DHT22;9572;52.378;13.404;2023-05-23T06:37:03;17.10;99.90
18880;DHT22;9572;52.378;13.404;2023-05-23T06:39:30;17.20;99.90
18880;DHT22;9572;52.378;13.404;2023-05-23T06:41:57;17.20;99.90
18880;DHT22;9572;52.378;13.404;2023-05-23T06:44:24;17.40;99.90
18880;DHT22;9572;52.378;13.404;2023-05-23T06:46:51;17.60;99.90
18880;DHT22;9572;52.378;13.404;2023-05-23T06:49:21;17.90;99.90
18880;DHT22;9572;52.378;13.404;2023-05-23T06:51:48;18.50;99.90
18880;DHT22;9572;52.378;13.404;2023-05-23T06:54:18;19.30;99.90
18880;DHT22;9572;52.378;13.404;2023-05-23T06:56:45;20.00;99.90
18880;DHT22;9572;52.378;13.404;2023-05-23T06:59:11;20.70;99.90
18880;DHT22;9572;52.378;13.404;2023-05-23T07:01:38;21.20;99.90
18880;DHT22;9572;52.378;13.404;2023-05-23T07:04:05;21.60;99.90
18880;DHT22;9572;52.378;13.404;2023-05-23T07:06:33;21.90;99.90
18880;DHT22;9572;52.378;13.404;2023-05-23T07:09:00;22.10;99.90
18880;DHT22;9572;52.378;13.404;2023-05-23T07:11:30;22.20;99.90
18880;DHT22;9572;52.378;13.404;2023-05-23T07:13:57;22.30;99.90
18880;DHT22;9572;52.378;13.404;2023-05-23T07:16:24;22.20;99.90
18880;DHT22;9572;52.378;13.404;2023-05-23T07:18:51;22.40;99.90
18880;DHT22;9572;52.378;13.404;2023-05-23T07:21:18;22.70;99.90
18880;DHT22;9572;52.378;13.404;2023-05-23T07:23:45;23.00;99.90
18880;DHT22;9572;52.378;13.404;2023-05-23T07:26:12;23.00;99.90
18880;DHT22;9572;52.378;13.404;2023-05-23T07:28:40;23.20;99.90
18880;DHT22;9572;52.378;13.404;2023-05-23T07:31:07;23.50;99.90
18880;DHT22;9572;52.378;13.404;2023-05-23T07:33:35;23.60;99.90
18880;DHT22;9572;52.378;13.404;2023-05-23T07:36:01;23.30;99.90
18880;DHT22;9572;52.378;13.404;2023-05-23T07:38:28;23.00;99.90
18880;DHT22;9572;52.378;13.404;2023-05-23T07:40:55;22.90;99.90
18880;DHT22;9572;52.378;13.404;2023-05-23T07:43:22;22.60;99.90
18880;DHT22;9572;52.378;13.404;2023-05-23T07:45:50;22.40;99.90
18880;DHT22;9572;52.378;13.404;2023-05-23T07:48:17;22.10;99.90
18880;DHT22;9572;52.378;13.404;2023-05-23T07:50:44;22.10;99.90
18880;DHT22;9572;52.378;13.404;2023-05-23T07:53:12;22.10;99.90
18880;DHT22;9572;52.378;13.404;2023-05-23T07:55:38;22.20;99.90
18880;DHT22;9572;52.378;13.404;2023-05-23T07:58:05;22.10;99.90
18880;DHT22;9572;52.378;13.404;2023-05-23T08:00:32;22.30;99.90
18880;DHT22;9572;52.378;13.404;2023-05-23T08:03:00;22.40;99.90
18880;DHT22;9572;52.378;13.404;2023-05-23T08:05:27;22.30;99.90
18880;DHT22;9572;52.378;13.404;2023-05-23T08:07:54;22.50;99.90
18880;DHT22;9572;52.378;13.404;2023-05-23T08:10:21;22.60;99.90
18880;DHT22;9572;52.378;13.404;2023-05-23T08:12:48;22.60;99.90
18880;DHT22;9572;52.378;13.404;2023-05-23T08:15:15;22.80;99.90
18880;DHT22;9572;52.378;13.404;2023-05-23T08:17:42;22.90;99.90
18880;DHT22;9572;52.378;13.404;2023-05-23T08:20:11;23.20;99.90
18880;DHT22;9572;52.378;13.404;2023-05-23T08:22:39;23.20;99.90
18880;DHT22;9572;52.378;13.404;2023-05-23T08:25:06;23.30;99.90
18880;DHT22;9572;52.378;13.404;2023-05-23T08:27:33;23.30;99.90
18880;DHT22;9572;52.378;13.404;2023-05-23T08:30:01;23.40;99.90
18880;DHT22;9572;52.378;13.404;2023-05-23T08:32:29;23.60;99.90
18880;DHT22;9572;52.378;13.404;2023-05-23T08:34:56;23.80;99.90
18880;DHT22;9572;52.378;13.404;2023-05-23T08:37:24;23.80;99.90
18880;DHT22;9572;52.378;13.404;2023-05-23T08:39:51;23.80;99.90
18880;DHT22;9572;52.378;13.404;2023-05-23T08:42:18;24.00;99.90
18880;DHT22;9572;52.378;13.404;2023-05-23T08:44:45;24.30;99.90
18880;DHT22;9572;52.378;13.404;2023-05-23T08:47:15;24.50;99.90
18880;DHT22;9572;52.378;13.404;2023-05-23T08:49:43;24.50;99.90
18880;DHT22;9572;52.378;13.404;2023-05-23T08:52:11;24.10;99.90
18880;DHT22;9572;52.378;13.404;2023-05-23T08:54:41;23.70;99.90
18880;DHT22;9572;52.378;13.404;2023-05-23T08:57:08;23.70;99.90
18880;DHT22;9572;52.378;13.404;2023-05-23T08:59:35;23.80;99.90
18880;DHT22;9572;52.378;13.404;2023-05-23T09:02:09;24.10;99.90
18880;DHT22;9572;52.378;13.404;2023-05-23T09:04:36;24.50;99.90
18880;DHT22;9572;52.378;13.404;2023-05-23T09:07:03;24.80;99.90
18880;DHT22;9572;52.378;13.404;2023-05-23T09:09:31;24.90;99.90
18880;DHT22;9572;52.378;13.404;2023-05-23T09:11:59;25.00;99.90
18880;DHT22;9572;52.378;13.404;2023-05-23T09:14:27;25.10;99.90
18880;DHT22;9572;52.378;13.404;2023-05-23T09:17:00;25.20;99.90
18880;DHT22;9572;52.378;13.404;2023-05-23T09:19:27;25.50;99.90
18880;DHT22;9572;52.378;13.404;2023-05-23T09:21:54;25.50;99.90
18880;DHT22;9572;52.378;13.404;2023-05-23T09:24:21;25.10;99.90
18880;DHT22;9572;52.378;13.404;2023-05-23T09:26:48;25.10;99.90
18880;DHT22;9572;52.378;13.404;2023-05-23T09:29:20;24.90;99.90
18880;DHT22;9572;52.378;13.404;2023-05-23T09:31:47;24.60;99.90
18880;DHT22;9572;52.378;13.404;2023-05-23T09:34:14;24.80;99.90
18880;DHT22;9572;52.378;13.404;2023-05-23T09:36:41;24.60;99.90
18880;DHT22;9572;52.378;13.404;2023-05-23T09:39:11;24.60;99.90
18880;DHT22;9572;52.378;13.404;2023-05-23T09:41:38;24.40;99.90
18880;DHT22;9572;52.378;13.404;2023-05-23T09:44:07;23.90;99.90
18880;DHT22;9572;52.378;13.404;2023-05-23T09:46:36;23.60;99.90
18880;DHT22;9572;52.378;13.404;2023-05-23T09:49:14;23.30;99.90
18880;DHT22;9572;52.378;13.404;2023-05-23T09:51:42;23.10;99.90
18880;DHT22;9572;52.378;13.404;2023-05-23T09:54:09;22.80;99.90
18880;DHT22;9572;52.378;13.404;2023-05-23T09:56:39;22.80;99.90
18880;DHT22;9572;52.378;13.404;2023-05-23T09:59:08;22.80;99.90
18880;DHT22;9572;52.378;13.404;2023-05-23T10:01:40;23.00;99.90
18880;DHT22;9572;52.378;13.404;2023-05-23T10:04:08;22.90;99.90
18880;DHT22;9572;52.378;13.404;2023-05-23T10:06:39;22.90;99.90
18880;DHT22;9572;52.378;13.404;2023-05-23T10:09:11;22.70;99.90
18880;DHT22;9572;52.378;13.404;2023-05-23T10:14:46;22.40;99.90
18880;DHT22;9572;52.378;13.404;2023-05-23T10:17:18;22.50;99.90
18880;DHT22;9572;52.378;13.404;2023-05-23T10:19:51;22.60;99.90
18880;DHT22;9572;52.378;13.404;2023-05-23T10:22:20;22.70;99.90
18880;DHT22;9572;52.378;13.404;2023-05-23T10:24:47;23.00;99.90
18880;DHT22;9572;52.378;13.404;2023-05-23T10:27:14;23.20;99.90
18880;DHT22;9572;52.378;13.404;2023-05-23T10:29:42;23.20;99.90
18880;DHT22;9572;52.378;13.404;2023-05-23T10:32:09;22.90;99.90
18880;DHT22;9572;52.378;13.404;2023-05-23T10:34:46;22.60;99.90
18880;DHT22;9572;52.378;13.404;2023-05-23T10:37:21;22.10;99.90
18880;DHT22;9572;52.378;13.404;2023-05-23T10:39:56;21.80;99.90
18880;DHT22;9572;52.378;13.404;2023-05-23T10:42:43;21.60;99.90
18880;DHT22;9572;52.378;13.404;2023-05-23T10:45:18;21.60;99.90
18880;DHT22;9572;52.378;13.404;2023-05-23T10:47:46;21.60;99.90
18880;DHT22;9572;52.378;13.404;2023-05-23T10:50:16;21.70;99.90
18880;DHT22;9572;52.378;13.404;2023-05-23T10:52:55;21.70;99.90
18880;DHT22;9572;52.378;13.404;2023-05-23T10:55:22;21.80;99.90
18880;DHT22;9572;52.378;13.404;2023-05-23T10:58:08;21.80;99.90
18880;DHT22;9572;52.378;13.404;2023-05-23T11:00:36;22.00;99.90
18880;DHT22;9572;52.378;13.404;2023-05-23T11:03:04;21.90;99.90
18880;DHT22;9572;52.378;13.404;2023-05-23T11:05:34;21.80;99.90
18880;DHT22;9572;52.378;13.404;2023-05-23T11:08:09;21.80;99.90
18880;DHT22;9572;52.378;13.404;2023-05-23T11:10:54;21.80;99.90
18880;DHT22;9572;52.378;13.404;2023-05-23T11:13:22;21.70;99.90
18880;DHT22;9572;52.378;13.404;2023-05-23T11:15:49;21.40;99.90
18880;DHT22;9572;52.378;13.404;2023-05-23T11:18:22;21.20;99.90
18880;DHT22;9572;52.378;13.404;2023-05-23T11:20:52;21.20;99.90
18880;DHT22;9572;52.378;13.404;2023-05-23T11:23:19;20.90;99.90
18880;DHT22;9572;52.378;13.404;2023-05-23T11:25:48;20.80;99.90
18880;DHT22;9572;52.378;13.404;2023-05-23T11:28:16;20.70;99.90
18880;DHT22;9572;52.378;13.404;2023-05-23T11:30:47;20.60;99.90
18880;DHT22;9572;52.378;13.404;2023-05-23T11:33:15;20.60;99.90
18880;DHT22;9572;52.378;13.404;2023-05-23T11:35:44;20.50;99.90
18880;DHT22;9572;52.378;13.404;2023-05-23T11:38:13;20.40;99.90
18880;DHT22;9572;52.378;13.404;2023-05-23T11:40:42;20.40;99.90
18880;DHT22;9572;52.378;13.404;2023-05-23T11:43:10;20.40;99.90
18880;DHT22;9572;52.378;13.404;2023-05-23T11:45:38;20.30;99.90
18880;DHT22;9572;52.378;13.404;2023-05-23T11:48:06;20.30;99.90
18880;DHT22;9572;52.378;13.404;2023-05-23T11:50:34;20.30;99.90
18880;DHT22;9572;52.378;13.404;2023-05-23T11:53:08;20.20;99.90
18880;DHT22;9572;52.378;13.404;2023-05-23T11:55:38;20.20;99.90
18880;DHT22;9572;52.378;13.404;2023-05-23T11:58:05;20.00;99.90
18880;DHT22;9572;52.378;13.404;2023-05-23T12:00:32;19.90;99.90
18880;DHT22;9572;52.378;13.404;2023-05-23T12:03:05;19.70;99.90
18880;DHT22;9572;52.378;13.404;2023-05-23T12:05:32;19.60;99.90
18880;DHT22;9572;52.378;13.404;2023-05-23T12:07:59;19.50;99.90
18880;DHT22;9572;52.378;13.404;2023-05-23T12:10:27;19.40;99.90
18880;DHT22;9572;52.378;13.404;2023-05-23T12:12:55;19.40;99.90
18880;DHT22;9572;52.378;13.404;2023-05-23T12:15:24;19.40;99.90
18880;DHT22;9572;52.378;13.404;2023-05-23T12:17:52;19.30;99.90
18880;DHT22;9572;52.378;13.404;2023-05-23T12:20:20;19.20;99.90
18880;DHT22;9572;52.378;13.404;2023-05-23T12:22:47;19.20;99.90
18880;DHT22;9572;52.378;13.404;2023-05-23T12:25:14;19.10;99.90
18880;DHT22;9572;52.378;13.404;2023-05-23T12:27:41;19.10;99.90
18880;DHT22;9572;52.378;13.404;2023-05-23T12:30:12;19.10;99.90
18880;DHT22;9572;52.378;13.404;2023-05-23T12:32:40;19.10;99.90
18880;DHT22;9572;52.378;13.404;2023-05-23T12:35:08;19.20;99.90
18880;DHT22;9572;52.378;13.404;2023-05-23T12:37:38;19.20;99.90
18880;DHT22;9572;52.378;13.404;2023-05-23T12:40:12;19.20;99.90
18880;DHT22;9572;52.378;13.404;2023-05-23T12:42:49;19.10;99.90
18880;DHT22;9572;52.378;13.404;2023-05-23T12:45:19;19.10;99.90
18880;DHT22;9572;52.378;13.404;2023-05-23T12:47:46;19.10;99.90
18880;DHT22;9572;52.378;13.404;2023-05-23T12:50:13;19.00;99.90
18880;DHT22;9572;52.378;13.404;2023-05-23T12:52:40;18.90;99.90
18880;DHT22;9572;52.378;13.404;2023-05-23T12:55:08;18.80;99.90
18880;DHT22;9572;52.378;13.404;2023-05-23T12:57:35;18.70;99.90
18880;DHT22;9572;52.378;13.404;2023-05-23T13:00:02;18.60;99.90
18880;DHT22;9572;52.378;13.404;2023-05-23T13:02:31;18.60;99.90
18880;DHT22;9572;52.378;13.404;2023-05-23T13:04:58;18.60;99.90
18880;DHT22;9572;52.378;13.404;2023-05-23T13:07:25;18.70;99.90
18880;DHT22;9572;52.378;13.404;2023-05-23T13:09:52;18.90;99.90
18880;DHT22;9572;52.378;13.404;2023-05-23T13:12:19;18.90;99.90
18880;DHT22;9572;52.378;13.404;2023-05-23T13:14:47;19.00;99.90
18880;DHT22;9572;52.378;13.404;2023-05-23T13:17:14;19.20;99.90
18880;DHT22;9572;52.378;13.404;2023-05-23T13:19:42;19.40;99.90
18880;DHT22;9572;52.378;13.404;2023-05-23T13:22:09;19.60;99.90
18880;DHT22;9572;52.378;13.404;2023-05-23T13:24:36;19.70;99.90
18880;DHT22;9572;52.378;13.404;2023-05-23T13:27:03;19.80;99.90
18880;DHT22;9572;52.378;13.404;2023-05-23T13:29:31;19.90;99.90
18880;DHT22;9572;52.378;13.404;2023-05-23T13:31:58;19.80;99.90
18880;DHT22;9572;52.378;13.404;2023-05-23T13:34:25;19.80;99.90
18880;DHT22;9572;52.378;13.404;2023-05-23T13:36:54;19.80;99.90
18880;DHT22;9572;52.378;13.404;2023-05-23T13:39:21;19.70;99.90
18880;DHT22;9572;52.378;13.404;2023-05-23T13:41:48;19.60;99.90
18880;DHT22;9572;52.378;13.404;2023-05-23T13:44:15;19.40;99.90
18880;DHT22;9572;52.378;13.404;2023-05-23T13:46:42;19.40;99.90
18880;DHT22;9572;52.378;13.404;2023-05-23T13:49:09;19.30;99.90
18880;DHT22;9572;52.378;13.404;2023-05-23T13:51:36;19.20;99.90
18880;DHT22;9572;52.378;13.404;2023-05-23T13:54:04;19.20;99.90
18880;DHT22;9572;52.378;13.404;2023-05-23T13:56:31;19.10;99.90
18880;DHT22;9572;52.378;13.404;2023-05-23T13:59:00;19.00;99.90
18880;DHT22;9572;52.378;13.404;2023-05-23T14:01:27;18.80;99.90
18880;DHT22;9572;52.378;13.404;2023-05-23T14:03:53;18.60;99.90
18880;DHT22;9572;52.378;13.404;2023-05-23T14:06:21;18.50;99.90
18880;DHT22;9572;52.378;13.404;2023-05-23T14:08:48;18.40;99.90
18880;DHT22;9572;52.378;13.404;2023-05-23T14:11:16;18.40;99.90
18880;DHT22;9572;52.378;13.404;2023-05-23T14:13:43;18.40;99.90
18880;DHT22;9572;52.378;13.404;2023-05-23T14:16:10;18.60;99.90
18880;DHT22;9572;52.378;13.404;2023-05-23T14:18:37;18.70;99.90
18880;DHT22;9572;52.378;13.404;2023-05-23T14:21:04;18.70;99.90
18880;DHT22;9572;52.378;13.404;2023-05-23T14:23:31;18.60;99.90
18880;DHT22;9572;52.378;13.404;2023-05-23T14:25:58;18.70;99.90
18880;DHT22;9572;52.378;13.404;2023-05-23T14:28:26;18.60;99.90
18880;DHT22;9572;52.378;13.404;2023-05-23T14:30:53;18.70;99.90
18880;DHT22;9572;52.378;13.404;2023-05-23T14:33:21;18.70;99.90
18880;DHT22;9572;52.378;13.404;2023-05-23T14:35:48;18.60;99.90
18880;DHT22;9572;52.378;13.404;2023-05-23T14:38:15;18.60;99.90
18880;DHT22;9572;52.378;13.404;2023-05-23T14:40:42;18.50;99.90
18880;DHT22;9572;52.378;13.404;2023-05-23T14:43:09;18.40;99.90
18880;DHT22;9572;52.378;13.404;2023-05-23T14:45:37;18.40;99.90
18880;DHT22;9572;52.378;13.404;2023-05-23T14:48:04;18.30;99.90
18880;DHT22;9572;52.378;13.404;2023-05-23T14:50:31;18.20;99.90
18880;DHT22;9572;52.378;13.404;2023-05-23T14:52:58;18.10;99.90
18880;DHT22;9572;52.378;13.404;2023-05-23T14:55:25;18.00;99.90
18880;DHT22;9572;52.378;13.404;2023-05-23T14:57:52;17.90;99.90
18880;DHT22;9572;52.378;13.404;2023-05-23T15:00:19;17.90;99.90
18880;DHT22;9572;52.378;13.404;2023-05-23T15:02:47;17.80;99.90
18880;DHT22;9572;52.378;13.404;2023-05-23T15:05:15;17.60;99.90
18880;DHT22;9572;52.378;13.404;2023-05-23T15:07:42;17.60;99.90
18880;DHT22;9572;52.378;13.404;2023-05-23T15:10:10;17.50;99.90
18880;DHT22;9572;52.378;13.404;2023-05-23T15:12:36;17.50;99.90
18880;DHT22;9572;52.378;13.404;2023-05-23T15:15:04;17.50;99.90
18880;DHT22;9572;52.378;13.404;2023-05-23T15:17:32;17.40;99.90
18880;DHT22;9572;52.378;13.404;2023-05-23T15:20:00;17.30;99.90
18880;DHT22;9572;52.378;13.404;2023-05-23T15:22:27;17.30;99.90
18880;DHT22;9572;52.378;13.404;2023-05-23T15:24:54;17.30;99.90
18880;DHT22;9572;52.378;13.404;2023-05-23T15:27:21;17.20;99.90
18880;DHT22;9572;52.378;13.404;2023-05-23T15:29:48;16.90;99.90
18880;DHT22;9572;52.378;13.404;2023-05-23T15:32:15;16.70;99.90
18880;DHT22;9572;52.378;13.404;2023-05-23T15:34:43;16.40;99.90
18880;DHT22;9572;52.378;13.404;2023-05-23T15:37:11;16.20;99.90
18880;DHT22;9572;52.378;13.404;2023-05-23T15:39:38;16.10;99.90